Time;durP1;ratioP1;P1;durP2;ratioP2;P2;SDS_P1;SDS_P2;PMS_P1;PMS_P2;Temp;Humidity;BMP_temperature;BMP_pressure;BME280_temperature;BME280_humidity;BME280_pressure;Samples;Min_cycle;Max_cycle;Signal;HPM_P1;HPM_P2
2023/08/25 00:00:37;;;;;;;111.87;3.30;;;25.40;53.80;;;;;;4974715;28;20519;-71
2023/08/25 00:03:03;;;;;;;111.80;3.10;;;25.50;52.00;;;;;;4993927;28;20471;-71
2023/08/25 00:05:29;;;;;;;111.57;3.00;;;25.60;49.50;;;;;;4991921;28;20425;-71
2023/08/25 00:07:54;;;;;;;111.70;3.10;;;25.60;49.70;;;;;;4991461;28;20809;-71
2023/08/25 00:10:21;;;;;;;111.70;3.20;;;25.50;50.40;;;;;;4992102;28;20216;-75
2023/08/25 00:12:47;;;;;;;111.50;2.90;;;25.50;53.30;;;;;;4979563;28;20236;-71
2023/08/25 00:15:12;;;;;;;111.87;3.10;;;25.30;49.70;;;;;;4998663;28;20435;-71
2023/08/25 00:17:39;;;;;;;112.80;3.63;;;25.40;49.80;;;;;;4994002;28;20464;-76
2023/08/25 00:20:08;;;;;;;111.80;3.07;;;25.60;50.70;;;;;;4998784;28;20211;-75
2023/08/25 00:22:34;;;;;;;111.60;3.23;;;25.50;53.40;;;;;;4992169;28;20528;-71
2023/08/25 00:25:00;;;;;;;111.20;2.70;;;25.50;51.90;;;;;;4994854;28;20512;-71
2023/08/25 00:27:25;;;;;;;111.97;3.17;;;25.50;53.00;;;;;;4972947;28;20445;-71
2023/08/25 00:29:53;;;;;;;112.10;3.50;;;25.50;53.30;;;;;;4990741;28;20236;-71
2023/08/25 00:32:18;;;;;;;111.73;3.10;;;25.50;52.50;;;;;;4992169;28;20189;-72
2023/08/25 00:34:44;;;;;;;112.27;3.33;;;25.30;53.10;;;;;;4996180;28;20433;-71
2023/08/25 00:37:10;;;;;;;112.07;3.20;;;25.20;54.70;;;;;;4986024;28;20259;-71
2023/08/25 00:39:36;;;;;;;111.80;3.10;;;25.00;56.00;;;;;;4992109;28;20572;-71
2023/08/25 00:42:01;;;;;;;112.50;3.27;;;24.90;56.50;;;;;;4991271;28;20425;-71
2023/08/25 00:44:27;;;;;;;112.20;3.60;;;25.10;55.90;;;;;;4991467;28;20610;-71
2023/08/25 00:46:53;;;;;;;111.67;3.00;;;25.10;56.00;;;;;;4993188;28;20263;-71
2023/08/25 00:49:20;;;;;;;114.70;3.63;;;25.20;55.00;;;;;;4993491;28;20754;-71
2023/08/25 00:51:46;;;;;;;111.77;3.03;;;25.10;55.60;;;;;;4976056;28;20221;-71
2023/08/25 00:54:13;;;;;;;111.63;2.80;;;25.10;55.80;;;;;;4991893;28;20470;-76
2023/08/25 00:56:39;;;;;;;112.17;3.50;;;25.30;53.10;;;;;;4992255;28;20212;-71
2023/08/25 00:59:05;;;;;;;111.60;2.90;;;25.10;54.80;;;;;;4972046;28;20433;-71
2023/08/25 01:01:31;;;;;;;112.10;3.40;;;25.00;55.80;;;;;;4992660;28;20428;-71
2023/08/25 01:03:56;;;;;;;112.23;3.43;;;24.90;56.80;;;;;;4990481;28;20666;-71
2023/08/25 01:06:22;;;;;;;111.63;2.90;;;24.70;57.40;;;;;;4991147;28;20544;-71
2023/08/25 01:08:49;;;;;;;113.80;3.33;;;24.80;56.60;;;;;;4991881;28;20184;-71
2023/08/25 01:11:21;;;;;;;111.50;2.80;;;24.90;56.60;;;;;;4991428;28;21014;-71
2023/08/25 01:13:56;;;;;;;111.47;3.20;;;25.00;54.30;;;;;;4989805;28;20439;-71
2023/08/25 01:16:29;;;;;;;111.67;2.93;;;25.30;52.80;;;;;;5000215;28;20553;-71
2023/08/25 01:18:56;;;;;;;111.57;3.17;;;25.20;53.10;;;;;;4998722;28;20529;-71
2023/08/25 01:21:22;;;;;;;111.77;3.27;;;25.00;54.90;;;;;;4992194;28;20490;-72
2023/08/25 01:23:56;;;;;;;112.10;3.50;;;25.10;55.00;;;;;;5001387;28;20909;-72
2023/08/25 01:26:22;;;;;;;111.97;3.03;;;25.10;53.00;;;;;;4991660;28;20462;-74
2023/08/25 01:28:51;;;;;;;112.50;3.57;;;24.90;55.50;;;;;;4990817;28;20539;-73
2023/08/25 01:31:19;;;;;;;111.77;3.10;;;24.70;57.00;;;;;;4984295;28;20220;-71
2023/08/25 01:33:46;;;;;;;112.07;3.23;;;24.70;57.10;;;;;;4986310;28;20429;-71
2023/08/25 01:36:35;;;;;;;112.30;3.13;;;24.70;56.60;;;;;;4991432;28;20534;-71
2023/08/25 01:39:16;;;;;;;112.17;3.23;;;24.90;55.60;;;;;;4986374;28;20997;-71
2023/08/25 01:41:45;;;;;;;112.27;3.57;;;24.80;56.50;;;;;;4991092;28;20427;-71
2023/08/25 01:44:14;;;;;;;111.17;2.80;;;24.80;56.90;;;;;;4988802;28;20432;-71
2023/08/25 01:46:43;;;;;;;112.07;3.30;;;24.90;56.90;;;;;;4988276;28;20964;-71
2023/08/25 01:49:10;;;;;;;111.80;3.17;;;25.00;54.50;;;;;;4986846;28;20428;-72
2023/08/25 01:51:36;;;;;;;112.10;3.00;;;24.90;56.00;;;;;;4981530;28;20510;-71
2023/08/25 01:54:02;;;;;;;111.77;2.93;;;24.90;55.00;;;;;;4990645;28;20514;-71
2023/08/25 01:56:28;;;;;;;111.67;3.00;;;24.90;55.00;;;;;;4986443;28;20471;-71
2023/08/25 01:58:54;;;;;;;115.90;4.03;;;25.00;53.30;;;;;;4987095;28;20432;-71
2023/08/25 02:01:20;;;;;;;111.67;2.90;;;24.90;54.40;;;;;;4990161;28;20216;-71
2023/08/25 02:03:45;;;;;;;111.90;3.07;;;25.10;50.40;;;;;;4985375;28;20191;-71
2023/08/25 02:06:11;;;;;;;111.67;2.97;;;25.10;52.30;;;;;;4984833;28;20205;-74
2023/08/25 02:08:37;;;;;;;112.07;3.07;;;25.10;53.00;;;;;;4988358;28;20200;-71
2023/08/25 02:11:03;;;;;;;111.93;3.03;;;25.10;51.60;;;;;;4989503;28;20389;-75
2023/08/25 02:13:29;;;;;;;124.93;3.57;;;25.10;46.30;;;;;;4973960;28;20494;-77
2023/08/25 02:15:55;;;;;;;111.80;2.90;;;25.10;49.00;;;;;;4986768;28;20998;-73
2023/08/25 02:18:20;;;;;;;111.60;2.93;;;25.20;49.90;;;;;;4984795;28;20219;-71
2023/08/25 02:20:46;;;;;;;111.83;2.93;;;25.30;50.10;;;;;;4984945;28;20208;-71
2023/08/25 02:23:11;;;;;;;111.87;3.27;;;25.20;50.20;;;;;;4990549;28;20200;-71
2023/08/25 02:25:37;;;;;;;112.40;3.40;;;25.20;50.40;;;;;;4987786;28;20568;-71
2023/08/25 02:28:03;;;;;;;111.83;3.27;;;25.30;51.80;;;;;;4984281;28;20221;-71
2023/08/25 02:30:29;;;;;;;111.60;2.90;;;25.10;50.80;;;;;;4986413;28;20188;-71
2023/08/25 02:32:55;;;;;;;111.80;3.00;;;25.00;52.00;;;;;;4987873;28;20658;-71
2023/08/25 02:35:20;;;;;;;111.77;3.10;;;25.10;53.40;;;;;;4984608;28;20435;-71
2023/08/25 02:38:15;;;;;;;111.37;2.93;;;25.10;47.80;;;;;;4987791;28;20474;-71
2023/08/25 02:40:41;;;;;;;111.97;3.27;;;24.90;50.00;;;;;;4933696;29;20231;-71
2023/08/25 02:43:07;;;;;;;112.40;3.80;;;25.10;46.40;;;;;;4949920;29;20576;-71
2023/08/25 02:45:34;;;;;;;112.27;3.40;;;25.30;49.20;;;;;;4930854;29;20203;-71
2023/08/25 02:48:01;;;;;;;111.77;2.80;;;25.40;45.60;;;;;;4950211;28;20441;-71
2023/08/25 02:50:27;;;;;;;111.80;3.20;;;25.60;47.50;;;;;;4948029;28;20474;-71
2023/08/25 02:52:52;;;;;;;111.67;3.10;;;25.50;49.30;;;;;;4949523;28;20474;-74
2023/08/25 02:55:20;;;;;;;111.87;3.10;;;25.40;47.70;;;;;;4949567;29;20476;-77
2023/08/25 02:57:47;;;;;;;112.50;3.37;;;25.40;45.00;;;;;;4948312;28;20722;-77
2023/08/25 03:00:14;;;;;;;111.40;3.00;;;25.60;46.10;;;;;;4949511;28;20477;-75
2023/08/25 03:02:40;;;;;;;111.60;3.23;;;25.70;48.50;;;;;;4950786;28;20445;-73
2023/08/25 03:05:07;;;;;;;111.57;2.93;;;25.50;47.40;;;;;;4949494;28;20497;-71
2023/08/25 03:07:33;;;;;;;111.97;3.23;;;25.50;49.60;;;;;;4949154;28;20590;-75
2023/08/25 03:09:59;;;;;;;111.70;3.17;;;25.60;49.60;;;;;;4948434;28;20451;-74
2023/08/25 03:12:26;;;;;;;111.67;3.13;;;25.00;49.70;;;;;;4958012;28;20195;-74
2023/08/25 03:14:52;;;;;;;111.13;3.23;;;25.00;51.60;;;;;;4950884;28;20485;-71
2023/08/25 03:17:18;;;;;;;111.17;2.93;;;24.80;52.30;;;;;;4971572;28;20559;-71
2023/08/25 03:19:44;;;;;;;111.20;3.23;;;24.80;55.30;;;;;;4989296;28;20566;-72
2023/08/25 03:22:09;;;;;;;112.10;3.10;;;24.60;52.70;;;;;;4989170;28;20223;-71
2023/08/25 03:24:35;;;;;;;122.40;3.67;;;24.60;54.20;;;;;;4987786;28;20200;-72
2023/08/25 03:27:00;;;;;;;110.57;2.73;;;24.60;51.90;;;;;;4987098;28;20252;-71
2023/08/25 03:29:26;;;;;;;111.20;3.20;;;24.60;53.50;;;;;;4985843;28;20208;-71
2023/08/25 03:31:52;;;;;;;111.60;3.50;;;24.80;53.10;;;;;;4989454;28;20192;-71
2023/08/25 03:34:18;;;;;;;111.40;3.10;;;24.90;54.30;;;;;;4990192;28;20187;-71
2023/08/25 03:36:45;;;;;;;111.90;3.60;;;25.10;51.90;;;;;;4992604;28;20808;-74
2023/08/25 03:39:12;;;;;;;111.27;3.23;;;25.10;53.70;;;;;;4968504;28;20435;-74
2023/08/25 03:41:37;;;;;;;111.00;2.83;;;25.00;52.80;;;;;;4989523;28;20482;-74
2023/08/25 03:44:03;;;;;;;111.60;3.27;;;25.20;48.30;;;;;;4996632;28;20443;-75
2023/08/25 03:46:28;;;;;;;111.40;3.03;;;25.20;49.00;;;;;;4993529;28;20216;-74
2023/08/25 03:48:54;;;;;;;112.27;3.43;;;25.30;46.20;;;;;;4993472;28;20189;-74
2023/08/25 03:51:20;;;;;;;111.97;3.43;;;25.40;44.80;;;;;;4997973;28;20168;-74
2023/08/25 03:53:45;;;;;;;114.30;3.23;;;25.40;45.80;;;;;;4996586;28;20186;-73
2023/08/25 03:56:11;;;;;;;111.23;3.30;;;25.20;44.50;;;;;;5000390;28;20200;-74
2023/08/25 03:58:36;;;;;;;111.27;3.33;;;25.30;46.40;;;;;;4994655;28;20232;-74
2023/08/25 04:01:03;;;;;;;111.37;3.17;;;25.30;44.60;;;;;;4994478;28;20287;-74
2023/08/25 04:03:28;;;;;;;111.60;3.27;;;25.40;44.00;;;;;;4993554;28;20177;-73
2023/08/25 04:05:54;;;;;;;110.77;2.93;;;25.60;44.70;;;;;;5005974;28;20435;-74
2023/08/25 04:08:20;;;;;;;111.30;3.37;;;25.60;45.20;;;;;;5014084;28;20173;-73
2023/08/25 04:10:46;;;;;;;110.77;3.10;;;25.40;45.60;;;;;;5009057;28;20193;-74
2023/08/25 04:13:12;;;;;;;111.40;3.30;;;25.30;43.40;;;;;;5010117;28;20187;-78
2023/08/25 04:15:37;;;;;;;109.90;2.80;;;25.20;44.90;;;;;;5004191;28;20842;-74
2023/08/25 04:18:04;;;;;;;110.77;3.10;;;25.50;45.00;;;;;;5006489;28;20465;-77
2023/08/25 04:20:30;;;;;;;112.07;3.40;;;25.50;46.60;;;;;;4995810;28;20579;-76
2023/08/25 04:22:56;;;;;;;111.27;3.20;;;25.10;46.40;;;;;;5012795;28;20408;-74
2023/08/25 04:25:21;;;;;;;111.37;3.23;;;24.70;47.10;;;;;;5003045;28;20978;-74
2023/08/25 04:27:47;;;;;;;110.43;2.87;;;24.80;47.60;;;;;;4997756;28;20190;-74
2023/08/25 04:30:13;;;;;;;116.73;3.50;;;25.10;45.90;;;;;;4992835;28;20584;-74
2023/08/25 04:32:39;;;;;;;111.37;3.40;;;25.00;47.00;;;;;;4979070;28;20190;-73
2023/08/25 04:35:05;;;;;;;110.60;3.30;;;25.20;46.40;;;;;;4991546;28;20554;-74
2023/08/25 04:37:30;;;;;;;114.37;3.73;;;25.10;46.30;;;;;;4993481;28;20272;-74
2023/08/25 04:39:56;;;;;;;110.87;3.43;;;24.90;47.30;;;;;;5000512;28;20483;-74
2023/08/25 04:42:22;;;;;;;110.00;2.90;;;25.20;45.20;;;;;;4991984;28;20186;-72
2023/08/25 04:44:48;;;;;;;110.40;3.10;;;25.40;44.30;;;;;;5002936;28;20186;-74
2023/08/25 04:47:15;;;;;;;110.10;2.70;;;25.60;44.50;;;;;;4984849;28;20460;-74
2023/08/25 04:49:43;;;;;;;110.23;3.10;;;25.60;43.40;;;;;;4992907;28;20445;-74
2023/08/25 04:52:08;;;;;;;110.67;3.07;;;25.80;44.00;;;;;;4992161;28;20428;-74
2023/08/25 04:54:34;;;;;;;110.33;2.87;;;25.80;42.80;;;;;;4992230;28;20424;-74
2023/08/25 04:56:59;;;;;;;110.17;3.00;;;25.90;45.70;;;;;;4974478;28;20666;-74
2023/08/25 04:59:25;;;;;;;110.27;3.17;;;25.90;43.80;;;;;;5000292;28;20673;-75
2023/08/25 05:01:50;;;;;;;110.73;3.70;;;25.80;44.90;;;;;;4999596;28;20264;-75
2023/08/25 05:04:16;;;;;;;110.40;3.30;;;25.80;44.50;;;;;;5005112;28;20347;-75
2023/08/25 05:06:42;;;;;;;110.87;3.23;;;25.90;43.90;;;;;;5010031;28;20193;-77
2023/08/25 05:09:07;;;;;;;110.27;3.07;;;25.90;43.70;;;;;;4984646;28;20193;-74
2023/08/25 05:11:34;;;;;;;110.27;3.13;;;25.80;44.50;;;;;;5009175;28;20180;-75
2023/08/25 05:14:00;;;;;;;111.90;3.80;;;27.70;48.20;;;;;;5012176;28;20560;-75
2023/08/25 05:16:26;;;;;;;109.80;2.90;;;26.00;43.30;;;;;;4964029;28;1122754;-75
2023/08/25 05:18:51;;;;;;;110.20;3.00;;;25.90;43.30;;;;;;4977460;28;20987;-76
2023/08/25 05:21:17;;;;;;;110.47;3.30;;;25.60;46.70;;;;;;5004383;28;20212;-75
2023/08/25 05:23:46;;;;;;;109.83;3.20;;;25.50;47.60;;;;;;5012795;28;20292;-75
2023/08/25 05:26:13;;;;;;;110.77;3.50;;;25.60;46.70;;;;;;4991624;28;20213;-74
2023/08/25 05:28:38;;;;;;;110.97;3.70;;;25.60;46.70;;;;;;4993784;28;20475;-75
2023/08/25 05:31:04;;;;;;;110.63;3.30;;;25.50;45.00;;;;;;4999841;28;20448;-74
2023/08/25 05:33:29;;;;;;;109.77;2.83;;;25.50;45.80;;;;;;5003314;28;20298;-75
2023/08/25 05:35:55;;;;;;;110.17;3.33;;;25.60;47.20;;;;;;4994408;28;20200;-76
2023/08/25 05:38:21;;;;;;;110.17;3.40;;;25.90;44.20;;;;;;5007898;28;20552;-76
2023/08/25 05:40:46;;;;;;;109.67;3.00;;;26.10;43.20;;;;;;5002877;28;20292;-76
2023/08/25 05:43:12;;;;;;;116.60;3.93;;;26.20;45.40;;;;;;4987051;28;20232;-76
2023/08/25 05:45:37;;;;;;;110.00;3.00;;;26.10;43.60;;;;;;5000780;28;20201;-76
2023/08/25 05:48:03;;;;;;;110.30;3.20;;;26.20;43.70;;;;;;4992589;28;20553;-75
2023/08/25 05:50:29;;;;;;;114.17;4.03;;;26.30;44.70;;;;;;4999642;28;20603;-75
2023/08/25 05:52:54;;;;;;;109.47;2.83;;;26.30;42.40;;;;;;5004001;28;20177;-75
2023/08/25 05:55:20;;;;;;;113.27;3.77;;;26.20;41.30;;;;;;5011877;28;20180;-75
2023/08/25 05:57:45;;;;;;;109.77;3.10;;;25.60;46.70;;;;;;5012018;28;20645;-75
2023/08/25 06:00:11;;;;;;;109.93;3.27;;;24.40;55.20;;;;;;5004606;28;20272;-75
2023/08/25 06:02:37;;;;;;;110.03;3.30;;;23.90;59.10;;;;;;4988610;28;20182;-75
2023/08/25 06:05:03;;;;;;;109.40;2.77;;;23.60;60.50;;;;;;4992296;28;20755;-75
2023/08/25 06:07:29;;;;;;;109.80;2.90;;;23.60;61.10;;;;;;4991363;28;20193;-74
2023/08/25 06:09:54;;;;;;;109.73;2.93;;;23.90;58.20;;;;;;5002517;28;20415;-74
2023/08/25 06:12:20;;;;;;;111.77;4.17;;;24.20;56.00;;;;;;5000551;28;20187;-75
2023/08/25 06:14:46;;;;;;;109.47;2.80;;;24.20;55.60;;;;;;5010378;28;20263;-75
2023/08/25 06:17:11;;;;;;;109.40;2.80;;;23.90;58.20;;;;;;5011546;28;20594;-75
2023/08/25 06:19:37;;;;;;;109.20;2.60;;;24.10;55.80;;;;;;5011794;28;20255;-75
2023/08/25 06:22:03;;;;;;;109.47;2.90;;;24.20;56.50;;;;;;5002749;28;20267;-75
2023/08/25 06:24:29;;;;;;;110.23;3.00;;;24.80;53.80;;;;;;5001748;28;20439;-74
2023/08/25 06:26:55;;;;;;;109.67;3.00;;;24.60;54.10;;;;;;4995643;28;20436;-75
2023/08/25 06:29:20;;;;;;;109.70;3.00;;;23.70;59.90;;;;;;5016063;28;20715;-75
2023/08/25 06:31:46;;;;;;;109.50;2.90;;;22.60;70.10;;;;;;5009045;28;20178;-76
2023/08/25 06:34:12;;;;;;;110.43;3.50;;;22.80;71.80;;;;;;5000187;28;20178;-75
2023/08/25 06:36:37;;;;;;;109.73;3.10;;;22.70;70.70;;;;;;4991786;28;20276;-74
2023/08/25 06:39:03;;;;;;;110.17;3.20;;;22.50;72.20;;;;;;4991925;28;20189;-75
2023/08/25 06:41:29;;;;;;;109.80;3.07;;;22.70;73.00;;;;;;4992082;28;20193;-75
2023/08/25 06:43:57;;;;;;;110.37;3.30;;;23.20;65.60;;;;;;4998911;28;20460;-75
2023/08/25 06:46:22;;;;;;;109.57;2.97;;;23.50;64.70;;;;;;5006869;28;20255;-75
2023/08/25 06:48:48;;;;;;;110.47;3.27;;;24.40;61.40;;;;;;5011397;28;20412;-75
2023/08/25 06:51:14;;;;;;;109.40;2.70;;;25.20;55.20;;;;;;5011550;28;20729;-74
2023/08/25 06:53:39;;;;;;;109.67;2.90;;;25.40;53.50;;;;;;5002204;28;20184;-75
2023/08/25 06:56:05;;;;;;;109.90;2.80;;;25.70;54.40;;;;;;4993212;28;20675;-75
2023/08/25 06:58:30;;;;;;;109.60;2.80;;;26.10;50.50;;;;;;5004360;28;20271;-76
2023/08/25 07:00:56;;;;;;;109.80;3.03;;;26.10;52.00;;;;;;5002227;28;20193;-75
2023/08/25 07:03:22;;;;;;;109.87;3.00;;;26.20;50.30;;;;;;5008217;28;20260;-75
2023/08/25 07:05:49;;;;;;;110.17;2.93;;;26.40;47.80;;;;;;5002378;28;20654;-76
2023/08/25 07:08:14;;;;;;;109.73;3.00;;;26.40;48.00;;;;;;5002859;28;20232;-75
2023/08/25 07:10:40;;;;;;;110.40;3.13;;;26.70;46.30;;;;;;5010431;28;20419;-75
2023/08/25 07:13:06;;;;;;;109.40;2.53;;;26.90;45.50;;;;;;5003457;28;20177;-74
2023/08/25 07:15:32;;;;;;;109.57;2.77;;;26.90;43.90;;;;;;5007090;28;20443;-75
2023/08/25 07:17:57;;;;;;;110.17;2.97;;;27.00;43.60;;;;;;5007164;28;20712;-75
2023/08/25 07:20:23;;;;;;;109.97;2.90;;;27.00;43.20;;;;;;5015093;28;20614;-76
2023/08/25 07:22:50;;;;;;;109.70;2.90;;;26.70;44.60;;;;;;5006523;28;20204;-76
2023/08/25 07:25:15;;;;;;;109.67;2.83;;;26.90;41.90;;;;;;4999308;28;20231;-77
2023/08/25 07:27:41;;;;;;;109.67;3.00;;;26.40;42.50;;;;;;4987749;28;20455;-78
2023/08/25 07:30:07;;;;;;;109.93;3.17;;;26.30;43.50;;;;;;4996974;28;20668;-77
2023/08/25 07:32:32;;;;;;;109.60;3.00;;;25.90;45.70;;;;;;5014673;28;20634;-77
2023/08/25 07:34:58;;;;;;;109.97;3.10;;;26.10;45.90;;;;;;5006012;28;20213;-78
2023/08/25 07:37:25;;;;;;;109.57;2.97;;;26.00;47.00;;;;;;5004936;28;20223;-77
2023/08/25 07:39:51;;;;;;;109.23;2.60;;;26.30;44.70;;;;;;4991495;28;20202;-77
2023/08/25 07:42:17;;;;;;;109.13;2.53;;;25.60;47.30;;;;;;4988913;28;20452;-77
2023/08/25 07:44:43;;;;;;;109.83;3.10;;;25.30;49.30;;;;;;4986204;28;20425;-77
2023/08/25 07:47:09;;;;;;;110.27;3.30;;;25.40;50.20;;;;;;4988154;28;20684;-77
2023/08/25 07:49:35;;;;;;;109.63;2.90;;;25.20;51.30;;;;;;4988770;28;20209;-80
2023/08/25 07:52:00;;;;;;;110.63;3.07;;;25.20;50.40;;;;;;4990462;28;20928;-79
2023/08/25 07:54:27;;;;;;;109.50;2.93;;;25.50;54.40;;;;;;4991014;28;20194;-77
2023/08/25 07:56:53;;;;;;;110.70;3.27;;;25.70;55.00;;;;;;4994852;28;20979;-79
2023/08/25 07:59:19;;;;;;;110.40;2.93;;;25.80;52.90;;;;;;4978705;28;20489;-78
2023/08/25 08:01:45;;;;;;;109.27;2.93;;;25.90;48.40;;;;;;4996237;28;20532;-77
2023/08/25 08:04:11;;;;;;;109.17;2.67;;;25.50;46.30;;;;;;5004632;28;20169;-77
2023/08/25 08:06:37;;;;;;;110.20;3.20;;;25.20;49.90;;;;;;5003706;28;20468;-76
2023/08/25 08:09:06;;;;;;;117.47;3.27;;;25.10;49.60;;;;;;5008260;28;20419;-76
2023/08/25 08:11:35;;;;;;;109.73;3.00;;;24.50;55.60;;;;;;5005762;28;20525;-75
2023/08/25 08:14:00;;;;;;;109.30;2.73;;;24.20;58.70;;;;;;5000366;28;20428;-76
2023/08/25 08:16:26;;;;;;;110.47;3.37;;;24.30;61.80;;;;;;4992106;28;20825;-76
2023/08/25 08:18:52;;;;;;;110.10;3.40;;;24.30;56.30;;;;;;5006694;28;20186;-77
2023/08/25 08:21:18;;;;;;;109.80;2.70;;;24.00;59.30;;;;;;5000074;28;20216;-77
2023/08/25 08:23:44;;;;;;;109.90;2.80;;;24.10;59.60;;;;;;4989492;28;21065;-78
2023/08/25 08:26:09;;;;;;;109.60;2.80;;;24.10;61.60;;;;;;4991093;28;21010;-77
2023/08/25 08:28:35;;;;;;;110.27;3.30;;;24.40;61.30;;;;;;4994134;28;20236;-78
2023/08/25 08:31:05;;;;;;;110.50;3.37;;;24.70;59.30;;;;;;4994649;28;20260;-79
2023/08/25 08:33:31;;;;;;;109.60;2.97;;;25.00;56.00;;;;;;5001158;28;20195;-76
2023/08/25 08:35:57;;;;;;;111.10;3.57;;;24.90;57.70;;;;;;4985234;28;20463;-76
2023/08/25 08:38:23;;;;;;;110.77;3.43;;;24.80;59.80;;;;;;4991331;28;20453;-75
2023/08/25 08:40:49;;;;;;;110.90;3.60;;;24.80;61.00;;;;;;5002301;28;20243;-75
2023/08/25 08:43:17;;;;;;;110.57;3.37;;;25.00;60.20;;;;;;4988960;28;20183;-75
2023/08/25 08:45:44;;;;;;;110.07;2.87;;;25.00;60.60;;;;;;4973917;28;20432;-74
2023/08/25 08:48:12;;;;;;;111.17;3.50;;;25.00;60.80;;;;;;4976825;28;20492;-78
2023/08/25 08:50:38;;;;;;;110.83;3.37;;;25.10;60.90;;;;;;5000504;28;20440;-78
2023/08/25 08:53:05;;;;;;;110.60;3.43;;;25.20;59.70;;;;;;5022409;28;20419;-78
2023/08/25 08:55:32;;;;;;;110.63;3.10;;;25.30;59.70;;;;;;5005448;28;20447;-78
2023/08/25 08:57:58;;;;;;;110.70;3.33;;;25.40;60.00;;;;;;5006929;28;20407;-78
2023/08/25 09:00:24;;;;;;;110.93;3.50;;;25.60;58.40;;;;;;5013914;28;20557;-78
2023/08/25 09:02:51;;;;;;;110.73;3.10;;;25.60;58.10;;;;;;5014047;28;20172;-78
2023/08/25 09:05:21;;;;;;;110.70;3.10;;;25.40;60.70;;;;;;5003383;28;20178;-76
2023/08/25 09:07:52;;;;;;;111.70;3.10;;;25.50;60.10;;;;;;4986153;28;20522;-78
2023/08/25 09:10:17;;;;;;;110.70;3.20;;;25.70;59.70;;;;;;4997838;28;20417;-78
2023/08/25 09:12:43;;;;;;;110.90;3.30;;;25.80;59.70;;;;;;4993526;28;20427;-76
2023/08/25 09:15:22;;;;;;;111.00;3.20;;;25.80;60.00;;;;;;4992240;28;20247;-75
2023/08/25 09:18:00;;;;;;;110.63;3.13;;;25.70;60.00;;;;;;5004818;28;20285;-76
2023/08/25 09:20:25;;;;;;;110.83;3.37;;;25.60;59.70;;;;;;5009021;28;20458;-75
2023/08/25 09:22:55;;;;;;;111.10;3.50;;;25.90;59.50;;;;;;5012322;28;20408;-74
2023/08/25 09:25:21;;;;;;;112.40;3.80;;;26.10;59.60;;;;;;5012349;28;20176;-74
2023/08/25 09:27:47;;;;;;;110.80;3.10;;;26.30;59.50;;;;;;4993153;28;20440;-74
2023/08/25 09:30:13;;;;;;;110.50;2.90;;;26.40;59.10;;;;;;4985926;28;20447;-74
2023/08/25 09:32:38;;;;;;;111.07;3.33;;;26.40;56.50;;;;;;5010197;28;20180;-74
2023/08/25 09:35:12;;;;;;;110.87;3.00;;;26.30;55.20;;;;;;5012051;28;20177;-76
2023/08/25 09:37:41;;;;;;;110.97;3.10;;;26.20;57.20;;;;;;4998129;28;20210;-77
2023/08/25 09:40:17;;;;;;;111.57;3.47;;;26.20;55.30;;;;;;5000522;28;20567;-76
2023/08/25 09:42:43;;;;;;;110.60;3.03;;;26.30;53.60;;;;;;5010678;28;20933;-76
2023/08/25 09:45:10;;;;;;;111.57;3.23;;;26.30;52.90;;;;;;5006731;28;20436;-76
2023/08/25 09:47:37;;;;;;;110.73;2.90;;;26.20;55.00;;;;;;5003819;28;20303;-76
2023/08/25 09:50:03;;;;;;;110.87;3.03;;;26.30;55.30;;;;;;4994503;28;21174;-76
2023/08/25 09:52:36;;;;;;;110.63;2.93;;;26.40;54.60;;;;;;4994747;28;20421;-76
2023/08/25 09:55:02;;;;;;;110.97;3.07;;;26.70;51.00;;;;;;5004354;28;20523;-77
2023/08/25 09:57:28;;;;;;;111.67;2.97;;;26.90;47.60;;;;;;5000395;28;20888;-76
2023/08/25 09:59:55;;;;;;;110.90;2.80;;;27.00;49.60;;;;;;4994220;28;20214;-77
2023/08/25 10:02:21;;;;;;;110.87;3.10;;;27.20;51.40;;;;;;5011992;28;20415;-76
2023/08/25 10:04:47;;;;;;;111.27;2.87;;;27.50;47.20;;;;;;5011599;28;20412;-75
2023/08/25 10:07:13;;;;;;;110.60;2.83;;;27.60;45.50;;;;;;5003861;28;20460;-74
2023/08/25 10:09:38;;;;;;;110.40;2.80;;;27.90;45.40;;;;;;4998888;28;20997;-74
2023/08/25 10:12:07;;;;;;;110.97;3.37;;;28.10;44.70;;;;;;4992953;28;20653;-74
2023/08/25 10:14:36;;;;;;;110.37;2.77;;;28.20;41.40;;;;;;4985342;28;20201;-74
2023/08/25 10:17:04;;;;;;;109.77;2.70;;;28.30;42.60;;;;;;4975023;28;20461;-72
2023/08/25 10:19:34;;;;;;;109.97;2.80;;;28.50;42.40;;;;;;4992066;28;20425;-73
2023/08/25 10:22:01;;;;;;;110.30;2.90;;;28.40;39.20;;;;;;4992064;28;20420;-74
2023/08/25 10:24:28;;;;;;;109.37;2.53;;;28.50;39.70;;;;;;4991715;28;20412;-74
2023/08/25 10:26:54;;;;;;;109.70;2.93;;;28.80;38.40;;;;;;4991604;28;20444;-74
2023/08/25 10:29:21;;;;;;;109.97;3.10;;;28.80;39.70;;;;;;4978043;28;20476;-74
2023/08/25 10:31:56;;;;;;;109.60;2.87;;;29.10;38.70;;;;;;5002194;28;20440;-74
2023/08/25 10:34:33;;;;;;;109.67;2.80;;;29.20;38.30;;;;;;5012508;28;20407;-75
2023/08/25 10:37:06;;;;;;;109.30;2.77;;;28.90;42.80;;;;;;5015489;28;20432;-74
2023/08/25 10:39:52;;;;;;;109.60;3.00;;;29.00;37.70;;;;;;4995941;28;20958;-75
2023/08/25 10:42:23;;;;;;;109.83;3.20;;;29.20;36.80;;;;;;5007385;28;20441;-74
2023/08/25 10:44:54;;;;;;;109.07;2.90;;;29.30;39.10;;;;;;5015294;28;20407;-74
2023/08/25 10:47:21;;;;;;;108.77;2.63;;;29.40;34.50;;;;;;5015438;28;20825;-74
2023/08/25 10:49:51;;;;;;;108.37;2.33;;;29.30;34.80;;;;;;5002157;28;20433;-74
2023/08/25 10:52:19;;;;;;;108.70;2.80;;;29.40;35.50;;;;;;5003102;28;20483;-75
2023/08/25 10:54:46;;;;;;;108.87;3.03;;;29.60;32.60;;;;;;5004597;28;20439;-76
2023/08/25 10:57:27;;;;;;;108.77;2.60;;;29.30;33.60;;;;;;4991785;28;20846;-73
2023/08/25 11:00:17;;;;;;;108.20;2.70;;;29.50;32.50;;;;;;5009385;28;20452;-74
2023/08/25 11:02:42;;;;;;;108.20;2.90;;;29.80;32.70;;;;;;5004902;28;20507;-73
2023/08/25 11:05:26;;;;;;;107.87;2.90;;;29.60;29.10;;;;;;5010766;28;20515;-74
2023/08/25 11:07:54;;;;;;;108.13;2.73;;;29.00;31.40;;;;;;5006389;28;20169;-73
2023/08/25 11:10:23;;;;;;;108.67;2.90;;;29.20;34.30;;;;;;5006337;28;20439;-74
2023/08/25 11:12:52;;;;;;;107.87;2.80;;;29.40;30.30;;;;;;5003254;28;20427;-74
2023/08/25 11:15:18;;;;;;;107.40;2.50;;;29.50;30.80;;;;;;4995126;28;20921;-74
2023/08/25 11:17:45;;;;;;;107.37;2.50;;;29.20;30.30;;;;;;5005436;28;20478;-74
2023/08/25 11:20:12;;;;;;;107.07;2.57;;;29.10;29.80;;;;;;5014827;28;20193;-74
2023/08/25 11:22:53;;;;;;;107.17;2.50;;;28.60;31.80;;;;;;5014758;28;20426;-74
2023/08/25 11:25:19;;;;;;;107.27;2.70;;;28.70;31.90;;;;;;5014416;28;20487;-73
2023/08/25 11:27:49;;;;;;;107.27;2.80;;;29.00;31.10;;;;;;5008831;28;20642;-74
2023/08/25 11:30:15;;;;;;;106.97;2.73;;;28.80;31.10;;;;;;5010990;28;20264;-74
2023/08/25 11:32:41;;;;;;;106.70;2.67;;;28.70;30.70;;;;;;4996830;28;20420;-73
2023/08/25 11:35:08;;;;;;;106.60;2.80;;;28.50;31.80;;;;;;5014442;28;20945;-73
2023/08/25 11:37:34;;;;;;;106.30;2.40;;;28.50;33.40;;;;;;4999599;28;20206;-74
2023/08/25 11:40:00;;;;;;;106.50;2.73;;;28.80;31.00;;;;;;5006779;28;20501;-74
2023/08/25 11:42:26;;;;;;;106.30;2.50;;;28.90;31.50;;;;;;5014398;28;20170;-74
2023/08/25 11:44:52;;;;;;;108.57;3.47;;;28.80;32.00;;;;;;5013813;28;20527;-73
2023/08/25 11:47:20;;;;;;;106.27;2.50;;;29.00;32.20;;;;;;5014328;28;20703;-74
2023/08/25 11:49:48;;;;;;;106.83;3.13;;;28.70;31.90;;;;;;5014347;28;20419;-74
2023/08/25 11:52:15;;;;;;;107.73;2.90;;;28.60;31.90;;;;;;5014337;28;20412;-74
2023/08/25 11:54:48;;;;;;;106.50;2.70;;;28.70;31.90;;;;;;5013906;28;21032;-74
2023/08/25 11:57:14;;;;;;;106.80;2.43;;;29.00;32.50;;;;;;5014379;28;20423;-74
2023/08/25 11:59:45;;;;;;;107.40;3.17;;;28.70;31.50;;;;;;5014261;28;20954;-74
2023/08/25 12:02:15;;;;;;;106.70;2.80;;;28.90;32.10;;;;;;5014159;28;20404;-74
2023/08/25 12:04:55;;;;;;;106.27;2.70;;;29.10;31.30;;;;;;5013807;28;20412;-73
2023/08/25 12:07:22;;;;;;;106.47;2.70;;;29.10;31.30;;;;;;5014450;28;20428;-74
2023/08/25 12:09:53;;;;;;;106.43;2.70;;;28.60;32.70;;;;;;5014124;28;20978;-74
2023/08/25 12:12:18;;;;;;;105.90;2.40;;;29.10;32.20;;;;;;5013926;28;20414;-74
2023/08/25 12:14:44;;;;;;;106.37;2.77;;;29.00;32.90;;;;;;5013968;28;20774;-74
2023/08/25 12:17:20;;;;;;;115.57;2.90;;;29.00;32.10;;;;;;5013698;28;20209;-74
2023/08/25 12:19:46;;;;;;;105.80;2.30;;;28.50;31.80;;;;;;5012429;28;20212;-77
2023/08/25 12:22:15;;;;;;;106.47;2.67;;;28.50;32.70;;;;;;5013701;28;20916;-73
2023/08/25 12:24:41;;;;;;;107.87;3.20;;;28.30;33.30;;;;;;5013387;28;20169;-74